Cmp Pendleton, California
Current Conditions -  °F | °C
As of 4:54 PM on Friday 24 Oct 2014 (Local Time) from KNFG Reporting Station
Clear Clear  
Wind Chill: 82°   Ceiling: Unl
Heat Index: 82°   Visibility: 7mi
Dew Point: 44°   Wind: 7mph
Humidity: 26%   Direction: 200°SSW
Pressure: 29.92"   Gusts: NA
Location:  33.356°N, 117.397°W
Report Text: KNFG 242354Z 20006KT 7SM CLR 28/07 A2992 RMK AO2 SLP131 T02780067 10311 20278 56002 $
Loading
Personal Weather Stations






























Interactive Weather Map
Tropical Storm Tracking
New forecast layout! Learn more

10-Day Weather Forecast

Advertisements
Track Severe Weather on mobile